sensor_id;sensor_type;location;lat;lon;timestamp;P1;durP1;ratioP1;P2;durP2;ratioP2
32393;SDS011;18853;45.426;9.206;2023-04-22T00:02:10;9.13;;;6.00;;
32393;SDS011;18853;45.426;9.206;2023-04-22T00:04:38;9.57;;;5.72;;
32393;SDS011;18853;45.426;9.206;2023-04-22T00:07:05;8.30;;;5.65;;
32393;SDS011;18853;45.426;9.206;2023-04-22T00:09:31;8.85;;;5.78;;
32393;SDS011;18853;45.426;9.206;2023-04-22T00:11:57;7.70;;;5.82;;
32393;SDS011;18853;45.426;9.206;2023-04-22T00:14:23;8.60;;;5.95;;
32393;SDS011;18853;45.426;9.206;2023-04-22T00:16:49;8.98;;;5.65;;
32393;SDS011;18853;45.426;9.206;2023-04-22T00:19:14;10.00;;;7.78;;
32393;SDS011;18853;45.426;9.206;2023-04-22T00:21:40;22.30;;;16.77;;
32393;SDS011;18853;45.426;9.206;2023-04-22T00:24:06;28.08;;;21.48;;
32393;SDS011;18853;45.426;9.206;2023-04-22T00:26:32;35.13;;;23.48;;
32393;SDS011;18853;45.426;9.206;2023-04-22T00:28:57;24.90;;;17.85;;
32393;SDS011;18853;45.426;9.206;2023-04-22T00:31:23;22.10;;;14.77;;
32393;SDS011;18853;45.426;9.206;2023-04-22T00:33:49;20.30;;;14.75;;
32393;SDS011;18853;45.426;9.206;2023-04-22T00:36:15;14.95;;;11.63;;
32393;SDS011;18853;45.426;9.206;2023-04-22T00:38:41;13.88;;;8.95;;
32393;SDS011;18853;45.426;9.206;2023-04-22T00:41:15;10.50;;;7.30;;
32393;SDS011;18853;45.426;9.206;2023-04-22T00:43:41;9.75;;;5.88;;
32393;SDS011;18853;45.426;9.206;2023-04-22T00:46:07;9.60;;;6.45;;
32393;SDS011;18853;45.426;9.206;2023-04-22T00:48:34;10.85;;;6.18;;
32393;SDS011;18853;45.426;9.206;2023-04-22T00:51:04;9.13;;;6.32;;
32393;SDS011;18853;45.426;9.206;2023-04-22T00:53:30;8.35;;;6.00;;
32393;SDS011;18853;45.426;9.206;2023-04-22T00:55:56;8.68;;;6.15;;
32393;SDS011;18853;45.426;9.206;2023-04-22T00:58:23;10.10;;;6.15;;
32393;SDS011;18853;45.426;9.206;2023-04-22T01:00:51;9.43;;;6.13;;
32393;SDS011;18853;45.426;9.206;2023-04-22T01:03:17;9.40;;;6.07;;
32393;SDS011;18853;45.426;9.206;2023-04-22T01:05:45;7.28;;;5.43;;
32393;SDS011;18853;45.426;9.206;2023-04-22T01:08:12;9.30;;;6.00;;
32393;SDS011;18853;45.426;9.206;2023-04-22T01:10:38;8.55;;;5.38;;
32393;SDS011;18853;45.426;9.206;2023-04-22T01:13:05;8.02;;;5.55;;
32393;SDS011;18853;45.426;9.206;2023-04-22T01:15:31;9.18;;;6.07;;
32393;SDS011;18853;45.426;9.206;2023-04-22T01:17:57;9.45;;;5.95;;
32393;SDS011;18853;45.426;9.206;2023-04-22T01:20:24;10.02;;;5.90;;
32393;SDS011;18853;45.426;9.206;2023-04-22T01:22:53;9.05;;;6.05;;
32393;SDS011;18853;45.426;9.206;2023-04-22T01:25:21;7.90;;;5.53;;
32393;SDS011;18853;45.426;9.206;2023-04-22T01:27:47;8.55;;;5.80;;
32393;SDS011;18853;45.426;9.206;2023-04-22T01:30:13;8.07;;;5.78;;
32393;SDS011;18853;45.426;9.206;2023-04-22T01:32:40;7.65;;;5.18;;
32393;SDS011;18853;45.426;9.206;2023-04-22T01:35:06;6.60;;;5.18;;
32393;SDS011;18853;45.426;9.206;2023-04-22T01:37:35;7.53;;;5.93;;
32393;SDS011;18853;45.426;9.206;2023-04-22T01:40:01;8.95;;;5.75;;
32393;SDS011;18853;45.426;9.206;2023-04-22T01:42:29;10.98;;;5.53;;
32393;SDS011;18853;45.426;9.206;2023-04-22T01:44:55;7.65;;;6.20;;
32393;SDS011;18853;45.426;9.206;2023-04-22T01:47:21;7.25;;;5.50;;
32393;SDS011;18853;45.426;9.206;2023-04-22T01:49:46;7.70;;;5.70;;
32393;SDS011;18853;45.426;9.206;2023-04-22T01:52:12;8.57;;;5.55;;
32393;SDS011;18853;45.426;9.206;2023-04-22T01:54:38;8.68;;;5.85;;
32393;SDS011;18853;45.426;9.206;2023-04-22T01:57:07;8.05;;;5.65;;
32393;SDS011;18853;45.426;9.206;2023-04-22T01:59:37;8.35;;;5.93;;
32393;SDS011;18853;45.426;9.206;2023-04-22T02:02:03;7.20;;;5.70;;
32393;SDS011;18853;45.426;9.206;2023-04-22T02:04:29;7.72;;;5.82;;
32393;SDS011;18853;45.426;9.206;2023-04-22T02:06:55;9.02;;;6.13;;
32393;SDS011;18853;45.426;9.206;2023-04-22T02:09:21;7.68;;;5.30;;
32393;SDS011;18853;45.426;9.206;2023-04-22T02:11:46;8.35;;;5.63;;
32393;SDS011;18853;45.426;9.206;2023-04-22T02:14:12;8.40;;;5.47;;
32393;SDS011;18853;45.426;9.206;2023-04-22T02:16:39;9.95;;;5.70;;
32393;SDS011;18853;45.426;9.206;2023-04-22T02:19:05;8.70;;;6.30;;
32393;SDS011;18853;45.426;9.206;2023-04-22T02:21:31;8.80;;;5.90;;
32393;SDS011;18853;45.426;9.206;2023-04-22T02:23:57;7.90;;;5.68;;
32393;SDS011;18853;45.426;9.206;2023-04-22T02:26:22;9.15;;;6.10;;
32393;SDS011;18853;45.426;9.206;2023-04-22T02:28:50;7.47;;;5.90;;
32393;SDS011;18853;45.426;9.206;2023-04-22T02:31:16;8.95;;;6.35;;
32393;SDS011;18853;45.426;9.206;2023-04-22T02:33:42;8.70;;;5.85;;
32393;SDS011;18853;45.426;9.206;2023-04-22T02:36:07;9.25;;;6.57;;
32393;SDS011;18853;45.426;9.206;2023-04-22T02:38:33;8.80;;;6.30;;
32393;SDS011;18853;45.426;9.206;2023-04-22T02:40:59;7.68;;;5.78;;
32393;SDS011;18853;45.426;9.206;2023-04-22T02:43:24;8.48;;;6.07;;
32393;SDS011;18853;45.426;9.206;2023-04-22T02:45:50;8.07;;;6.20;;
32393;SDS011;18853;45.426;9.206;2023-04-22T02:48:16;10.93;;;6.30;;
32393;SDS011;18853;45.426;9.206;2023-04-22T02:50:41;8.80;;;6.13;;
32393;SDS011;18853;45.426;9.206;2023-04-22T02:53:07;7.18;;;5.93;;
32393;SDS011;18853;45.426;9.206;2023-04-22T02:55:34;9.25;;;5.97;;
32393;SDS011;18853;45.426;9.206;2023-04-22T02:58:00;9.23;;;5.78;;
32393;SDS011;18853;45.426;9.206;2023-04-22T03:00:26;8.18;;;6.30;;
32393;SDS011;18853;45.426;9.206;2023-04-22T03:02:51;9.35;;;6.15;;
32393;SDS011;18853;45.426;9.206;2023-04-22T03:05:17;7.68;;;5.85;;
32393;SDS011;18853;45.426;9.206;2023-04-22T03:07:43;11.32;;;6.30;;
32393;SDS011;18853;45.426;9.206;2023-04-22T03:10:09;7.40;;;5.60;;
32393;SDS011;18853;45.426;9.206;2023-04-22T03:12:34;7.07;;;5.50;;
32393;SDS011;18853;45.426;9.206;2023-04-22T03:15:00;9.07;;;5.93;;
32393;SDS011;18853;45.426;9.206;2023-04-22T03:17:26;8.32;;;5.90;;
32393;SDS011;18853;45.426;9.206;2023-04-22T03:19:52;8.52;;;5.80;;
32393;SDS011;18853;45.426;9.206;2023-04-22T03:22:18;7.82;;;5.70;;
32393;SDS011;18853;45.426;9.206;2023-04-22T03:24:43;7.65;;;5.90;;
32393;SDS011;18853;45.426;9.206;2023-04-22T03:27:09;7.97;;;5.70;;
32393;SDS011;18853;45.426;9.206;2023-04-22T03:29:35;7.75;;;6.00;;
32393;SDS011;18853;45.426;9.206;2023-04-22T03:32:00;9.20;;;6.15;;
32393;SDS011;18853;45.426;9.206;2023-04-22T03:34:26;9.23;;;6.20;;
32393;SDS011;18853;45.426;9.206;2023-04-22T03:36:52;8.93;;;6.28;;
32393;SDS011;18853;45.426;9.206;2023-04-22T03:39:18;9.02;;;6.30;;
32393;SDS011;18853;45.426;9.206;2023-04-22T03:41:43;8.10;;;5.95;;
32393;SDS011;18853;45.426;9.206;2023-04-22T03:44:09;10.77;;;6.28;;
32393;SDS011;18853;45.426;9.206;2023-04-22T03:46:35;8.93;;;6.18;;
32393;SDS011;18853;45.426;9.206;2023-04-22T03:49:01;8.93;;;6.35;;
32393;SDS011;18853;45.426;9.206;2023-04-22T03:51:26;8.88;;;6.10;;
32393;SDS011;18853;45.426;9.206;2023-04-22T03:53:53;8.20;;;6.18;;
32393;SDS011;18853;45.426;9.206;2023-04-22T03:56:18;9.68;;;6.40;;
32393;SDS011;18853;45.426;9.206;2023-04-22T03:58:44;8.88;;;6.35;;
32393;SDS011;18853;45.426;9.206;2023-04-22T04:01:10;7.75;;;5.82;;
32393;SDS011;18853;45.426;9.206;2023-04-22T04:03:35;11.10;;;6.32;;
32393;SDS011;18853;45.426;9.206;2023-04-22T04:06:01;7.90;;;6.55;;
32393;SDS011;18853;45.426;9.206;2023-04-22T04:08:27;8.88;;;6.40;;
32393;SDS011;18853;45.426;9.206;2023-04-22T04:10:53;8.85;;;6.95;;
32393;SDS011;18853;45.426;9.206;2023-04-22T04:13:18;8.95;;;6.47;;
32393;SDS011;18853;45.426;9.206;2023-04-22T04:15:44;8.80;;;5.82;;
32393;SDS011;18853;45.426;9.206;2023-04-22T04:18:10;10.50;;;6.72;;
32393;SDS011;18853;45.426;9.206;2023-04-22T04:20:36;7.55;;;6.25;;
32393;SDS011;18853;45.426;9.206;2023-04-22T04:23:01;9.50;;;6.25;;
32393;SDS011;18853;45.426;9.206;2023-04-22T04:25:27;9.00;;;6.78;;
32393;SDS011;18853;45.426;9.206;2023-04-22T04:28:01;9.10;;;6.45;;
32393;SDS011;18853;45.426;9.206;2023-04-22T04:30:33;9.45;;;6.82;;
32393;SDS011;18853;45.426;9.206;2023-04-22T04:32:59;8.65;;;6.75;;
32393;SDS011;18853;45.426;9.206;2023-04-22T04:35:30;8.05;;;6.40;;
32393;SDS011;18853;45.426;9.206;2023-04-22T04:37:58;9.30;;;6.35;;
32393;SDS011;18853;45.426;9.206;2023-04-22T04:40:24;9.68;;;6.60;;
32393;SDS011;18853;45.426;9.206;2023-04-22T04:42:53;9.35;;;7.05;;
32393;SDS011;18853;45.426;9.206;2023-04-22T04:45:19;9.70;;;7.20;;
32393;SDS011;18853;45.426;9.206;2023-04-22T04:47:46;10.65;;;6.70;;
32393;SDS011;18853;45.426;9.206;2023-04-22T04:50:15;8.93;;;6.95;;
32393;SDS011;18853;45.426;9.206;2023-04-22T04:52:41;9.57;;;6.88;;
32393;SDS011;18853;45.426;9.206;2023-04-22T04:55:06;7.80;;;6.22;;
32393;SDS011;18853;45.426;9.206;2023-04-22T04:57:33;8.48;;;6.82;;
32393;SDS011;18853;45.426;9.206;2023-04-22T04:59:59;12.25;;;7.07;;
32393;SDS011;18853;45.426;9.206;2023-04-22T05:02:25;8.57;;;6.50;;
32393;SDS011;18853;45.426;9.206;2023-04-22T05:04:51;8.73;;;6.43;;
32393;SDS011;18853;45.426;9.206;2023-04-22T05:07:16;8.93;;;7.13;;
32393;SDS011;18853;45.426;9.206;2023-04-22T05:09:42;10.90;;;6.97;;
32393;SDS011;18853;45.426;9.206;2023-04-22T05:12:08;9.77;;;7.00;;
32393;SDS011;18853;45.426;9.206;2023-04-22T05:14:34;9.68;;;6.68;;
32393;SDS011;18853;45.426;9.206;2023-04-22T05:16:59;10.07;;;6.78;;
32393;SDS011;18853;45.426;9.206;2023-04-22T05:19:25;10.20;;;6.72;;
32393;SDS011;18853;45.426;9.206;2023-04-22T05:21:51;8.57;;;6.55;;
32393;SDS011;18853;45.426;9.206;2023-04-22T05:24:16;10.23;;;7.18;;
32393;SDS011;18853;45.426;9.206;2023-04-22T05:26:42;8.63;;;6.20;;
32393;SDS011;18853;45.426;9.206;2023-04-22T05:29:08;8.77;;;6.35;;
32393;SDS011;18853;45.426;9.206;2023-04-22T05:31:33;8.75;;;6.53;;
32393;SDS011;18853;45.426;9.206;2023-04-22T05:33:59;8.55;;;6.13;;
32393;SDS011;18853;45.426;9.206;2023-04-22T05:36:25;11.13;;;6.10;;
32393;SDS011;18853;45.426;9.206;2023-04-22T05:38:51;10.38;;;6.55;;
32393;SDS011;18853;45.426;9.206;2023-04-22T05:41:17;9.25;;;6.88;;
32393;SDS011;18853;45.426;9.206;2023-04-22T05:43:43;9.43;;;7.53;;
32393;SDS011;18853;45.426;9.206;2023-04-22T05:46:08;9.65;;;7.15;;
32393;SDS011;18853;45.426;9.206;2023-04-22T05:48:34;10.15;;;7.35;;
32393;SDS011;18853;45.426;9.206;2023-04-22T05:51:00;8.68;;;6.57;;
32393;SDS011;18853;45.426;9.206;2023-04-22T05:53:26;8.93;;;6.03;;
32393;SDS011;18853;45.426;9.206;2023-04-22T05:55:52;8.70;;;6.75;;
32393;SDS011;18853;45.426;9.206;2023-04-22T05:58:17;8.77;;;6.50;;
32393;SDS011;18853;45.426;9.206;2023-04-22T06:00:43;8.30;;;6.00;;
32393;SDS011;18853;45.426;9.206;2023-04-22T06:03:10;9.02;;;5.97;;
32393;SDS011;18853;45.426;9.206;2023-04-22T06:05:35;9.02;;;5.88;;
32393;SDS011;18853;45.426;9.206;2023-04-22T06:08:01;10.45;;;6.32;;
32393;SDS011;18853;45.426;9.206;2023-04-22T06:10:27;8.57;;;6.47;;
32393;SDS011;18853;45.426;9.206;2023-04-22T06:12:53;7.88;;;6.30;;
32393;SDS011;18853;45.426;9.206;2023-04-22T06:15:18;7.85;;;5.88;;
32393;SDS011;18853;45.426;9.206;2023-04-22T06:17:44;8.70;;;6.72;;
32393;SDS011;18853;45.426;9.206;2023-04-22T06:20:10;8.68;;;6.38;;
32393;SDS011;18853;45.426;9.206;2023-04-22T06:22:36;9.50;;;6.97;;
32393;SDS011;18853;45.426;9.206;2023-04-22T06:25:02;10.13;;;6.60;;
32393;SDS011;18853;45.426;9.206;2023-04-22T06:27:28;9.93;;;6.40;;
32393;SDS011;18853;45.426;9.206;2023-04-22T06:29:54;11.38;;;6.80;;
32393;SDS011;18853;45.426;9.206;2023-04-22T06:32:21;9.57;;;6.70;;
32393;SDS011;18853;45.426;9.206;2023-04-22T06:34:46;9.82;;;6.70;;
32393;SDS011;18853;45.426;9.206;2023-04-22T06:37:12;9.73;;;6.53;;
32393;SDS011;18853;45.426;9.206;2023-04-22T06:39:38;8.55;;;7.03;;
32393;SDS011;18853;45.426;9.206;2023-04-22T06:42:03;8.52;;;6.65;;
32393;SDS011;18853;45.426;9.206;2023-04-22T06:44:29;9.30;;;6.55;;
32393;SDS011;18853;45.426;9.206;2023-04-22T06:46:56;9.45;;;7.05;;
32393;SDS011;18853;45.426;9.206;2023-04-22T06:49:21;9.70;;;6.35;;
32393;SDS011;18853;45.426;9.206;2023-04-22T06:51:47;10.15;;;7.95;;
32393;SDS011;18853;45.426;9.206;2023-04-22T06:54:13;9.88;;;7.03;;
32393;SDS011;18853;45.426;9.206;2023-04-22T06:56:38;11.35;;;7.32;;
32393;SDS011;18853;45.426;9.206;2023-04-22T06:59:04;11.25;;;7.53;;
32393;SDS011;18853;45.426;9.206;2023-04-22T07:01:31;12.32;;;8.25;;
32393;SDS011;18853;45.426;9.206;2023-04-22T07:03:57;12.45;;;7.75;;
32393;SDS011;18853;45.426;9.206;2023-04-22T07:06:23;10.65;;;8.05;;
32393;SDS011;18853;45.426;9.206;2023-04-22T07:08:49;12.02;;;7.80;;
32393;SDS011;18853;45.426;9.206;2023-04-22T07:11:14;9.13;;;7.57;;
32393;SDS011;18853;45.426;9.206;2023-04-22T07:13:40;12.02;;;8.68;;
32393;SDS011;18853;45.426;9.206;2023-04-22T07:16:06;9.77;;;8.07;;
32393;SDS011;18853;45.426;9.206;2023-04-22T07:18:32;49.78;;;32.47;;
32393;SDS011;18853;45.426;9.206;2023-04-22T07:20:59;10.35;;;8.70;;
32393;SDS011;18853;45.426;9.206;2023-04-22T07:23:25;12.60;;;7.53;;
32393;SDS011;18853;45.426;9.206;2023-04-22T07:25:51;10.15;;;7.80;;
32393;SDS011;18853;45.426;9.206;2023-04-22T07:28:17;11.57;;;8.00;;
32393;SDS011;18853;45.426;9.206;2023-04-22T07:30:43;10.68;;;7.60;;
32393;SDS011;18853;45.426;9.206;2023-04-22T07:33:10;10.13;;;7.15;;
32393;SDS011;18853;45.426;9.206;2023-04-22T07:35:36;12.15;;;7.65;;
32393;SDS011;18853;45.426;9.206;2023-04-22T07:38:01;8.48;;;7.13;;
32393;SDS011;18853;45.426;9.206;2023-04-22T07:40:27;9.98;;;7.93;;
32393;SDS011;18853;45.426;9.206;2023-04-22T07:42:53;9.88;;;7.20;;
32393;SDS011;18853;45.426;9.206;2023-04-22T07:45:19;9.65;;;8.02;;
32393;SDS011;18853;45.426;9.206;2023-04-22T07:47:44;10.45;;;7.32;;
32393;SDS011;18853;45.426;9.206;2023-04-22T07:50:10;10.32;;;7.10;;
32393;SDS011;18853;45.426;9.206;2023-04-22T07:52:36;10.60;;;7.10;;
32393;SDS011;18853;45.426;9.206;2023-04-22T07:55:02;11.35;;;7.63;;
32393;SDS011;18853;45.426;9.206;2023-04-22T07:57:28;11.23;;;8.43;;
32393;SDS011;18853;45.426;9.206;2023-04-22T07:59:53;12.80;;;9.18;;
32393;SDS011;18853;45.426;9.206;2023-04-22T08:02:19;11.02;;;7.85;;
32393;SDS011;18853;45.426;9.206;2023-04-22T08:04:44;11.48;;;8.50;;
32393;SDS011;18853;45.426;9.206;2023-04-22T08:07:10;12.45;;;8.20;;
32393;SDS011;18853;45.426;9.206;2023-04-22T08:09:36;13.65;;;8.85;;
32393;SDS011;18853;45.426;9.206;2023-04-22T08:12:01;12.40;;;8.70;;
32393;SDS011;18853;45.426;9.206;2023-04-22T08:14:27;11.80;;;8.75;;
32393;SDS011;18853;45.426;9.206;2023-04-22T08:16:53;11.18;;;8.52;;
32393;SDS011;18853;45.426;9.206;2023-04-22T08:19:19;11.30;;;8.75;;
32393;SDS011;18853;45.426;9.206;2023-04-22T08:21:45;24.25;;;15.65;;
32393;SDS011;18853;45.426;9.206;2023-04-22T08:24:12;31.35;;;20.88;;
32393;SDS011;18853;45.426;9.206;2023-04-22T08:26:38;31.83;;;21.90;;
32393;SDS011;18853;45.426;9.206;2023-04-22T08:29:04;22.65;;;15.90;;
32393;SDS011;18853;45.426;9.206;2023-04-22T08:31:31;19.52;;;12.48;;
32393;SDS011;18853;45.426;9.206;2023-04-22T08:33:57;24.48;;;16.40;;
32393;SDS011;18853;45.426;9.206;2023-04-22T08:36:23;15.60;;;11.40;;
32393;SDS011;18853;45.426;9.206;2023-04-22T08:38:50;15.93;;;11.18;;
32393;SDS011;18853;45.426;9.206;2023-04-22T08:41:20;20.35;;;13.23;;
32393;SDS011;18853;45.426;9.206;2023-04-22T08:43:46;22.85;;;15.02;;
32393;SDS011;18853;45.426;9.206;2023-04-22T08:46:13;12.35;;;10.40;;
32393;SDS011;18853;45.426;9.206;2023-04-22T08:48:44;16.92;;;11.52;;
32393;SDS011;18853;45.426;9.206;2023-04-22T08:51:11;13.63;;;10.70;;
32393;SDS011;18853;45.426;9.206;2023-04-22T08:53:40;16.92;;;12.32;;
32393;SDS011;18853;45.426;9.206;2023-04-22T08:56:07;15.50;;;11.10;;
32393;SDS011;18853;45.426;9.206;2023-04-22T08:58:33;16.08;;;11.32;;
32393;SDS011;18853;45.426;9.206;2023-04-22T09:01:00;12.70;;;10.00;;
32393;SDS011;18853;45.426;9.206;2023-04-22T09:03:26;12.98;;;9.30;;
32393;SDS011;18853;45.426;9.206;2023-04-22T09:05:52;14.10;;;10.43;;
32393;SDS011;18853;45.426;9.206;2023-04-22T09:08:19;13.48;;;9.68;;
32393;SDS011;18853;45.426;9.206;2023-04-22T09:10:45;12.02;;;8.80;;
32393;SDS011;18853;45.426;9.206;2023-04-22T09:13:12;13.07;;;8.98;;
32393;SDS011;18853;45.426;9.206;2023-04-22T09:15:38;12.23;;;9.25;;
32393;SDS011;18853;45.426;9.206;2023-04-22T09:18:04;11.82;;;9.02;;
32393;SDS011;18853;45.426;9.206;2023-04-22T09:20:33;11.65;;;8.88;;
32393;SDS011;18853;45.426;9.206;2023-04-22T09:23:01;10.70;;;8.57;;
32393;SDS011;18853;45.426;9.206;2023-04-22T09:25:31;12.38;;;9.50;;
32393;SDS011;18853;45.426;9.206;2023-04-22T09:27:59;10.23;;;8.27;;
32393;SDS011;18853;45.426;9.206;2023-04-22T09:30:29;9.90;;;7.50;;
32393;SDS011;18853;45.426;9.206;2023-04-22T09:33:00;11.05;;;7.97;;
32393;SDS011;18853;45.426;9.206;2023-04-22T09:35:32;9.63;;;7.45;;
32393;SDS011;18853;45.426;9.206;2023-04-22T09:38:03;11.80;;;7.78;;
32393;SDS011;18853;45.426;9.206;2023-04-22T09:40:33;9.82;;;7.22;;
32393;SDS011;18853;45.426;9.206;2023-04-22T09:43:00;10.98;;;6.95;;
32393;SDS011;18853;45.426;9.206;2023-04-22T09:45:34;7.90;;;6.70;;
32393;SDS011;18853;45.426;9.206;2023-04-22T09:48:08;10.70;;;7.10;;
32393;SDS011;18853;45.426;9.206;2023-04-22T09:50:39;10.18;;;6.53;;
32393;SDS011;18853;45.426;9.206;2023-04-22T09:53:14;9.15;;;6.32;;
32393;SDS011;18853;45.426;9.206;2023-04-22T09:55:42;11.18;;;7.45;;
32393;SDS011;18853;45.426;9.206;2023-04-22T09:58:10;10.35;;;6.50;;
32393;SDS011;18853;45.426;9.206;2023-04-22T10:03:13;9.98;;;7.43;;
32393;SDS011;18853;45.426;9.206;2023-04-22T10:05:39;10.88;;;7.88;;
32393;SDS011;18853;45.426;9.206;2023-04-22T10:08:07;9.95;;;7.38;;
32393;SDS011;18853;45.426;9.206;2023-04-22T10:10:34;8.48;;;6.93;;
32393;SDS011;18853;45.426;9.206;2023-04-22T10:13:00;7.13;;;6.03;;
32393;SDS011;18853;45.426;9.206;2023-04-22T10:16:01;9.70;;;6.93;;
32393;SDS011;18853;45.426;9.206;2023-04-22T10:18:22;9.80;;;6.90;;
32393;SDS011;18853;45.426;9.206;2023-04-22T10:20:50;9.05;;;7.18;;
32393;SDS011;18853;45.426;9.206;2023-04-22T10:23:19;9.77;;;8.00;;
32393;SDS011;18853;45.426;9.206;2023-04-22T10:25:48;9.40;;;7.88;;
32393;SDS011;18853;45.426;9.206;2023-04-22T10:28:17;12.30;;;9.13;;
32393;SDS011;18853;45.426;9.206;2023-04-22T10:30:44;11.85;;;8.38;;
32393;SDS011;18853;45.426;9.206;2023-04-22T10:38:36;7.93;;;6.00;;
32393;SDS011;18853;45.426;9.206;2023-04-22T10:41:03;10.93;;;6.57;;
32393;SDS011;18853;45.426;9.206;2023-04-22T10:43:45;7.28;;;6.05;;
32393;SDS011;18853;45.426;9.206;2023-04-22T10:49:07;12.02;;;8.60;;
32393;SDS011;18853;45.426;9.206;2023-04-22T10:54:04;12.18;;;9.38;;
32393;SDS011;18853;45.426;9.206;2023-04-22T10:56:30;10.98;;;9.13;;
32393;SDS011;18853;45.426;9.206;2023-04-22T10:58:56;12.40;;;8.98;;
32393;SDS011;18853;45.426;9.206;2023-04-22T11:01:22;9.77;;;7.55;;
32393;SDS011;18853;45.426;9.206;2023-04-22T11:03:48;11.43;;;8.77;;
32393;SDS011;18853;45.426;9.206;2023-04-22T11:06:16;11.63;;;8.88;;
32393;SDS011;18853;45.426;9.206;2023-04-22T11:08:44;10.35;;;8.07;;
32393;SDS011;18853;45.426;9.206;2023-04-22T11:11:11;11.23;;;8.85;;
32393;SDS011;18853;45.426;9.206;2023-04-22T11:13:39;13.75;;;9.95;;
32393;SDS011;18853;45.426;9.206;2023-04-22T11:16:07;10.38;;;8.15;;
32393;SDS011;18853;45.426;9.206;2023-04-22T11:18:33;12.05;;;8.57;;
32393;SDS011;18853;45.426;9.206;2023-04-22T11:21:06;10.05;;;7.43;;
32393;SDS011;18853;45.426;9.206;2023-04-22T11:23:32;11.93;;;8.65;;
32393;SDS011;18853;45.426;9.206;2023-04-22T11:26:00;10.30;;;8.20;;
32393;SDS011;18853;45.426;9.206;2023-04-22T11:28:28;13.05;;;10.07;;
32393;SDS011;18853;45.426;9.206;2023-04-22T11:31:27;12.20;;;9.43;;
32393;SDS011;18853;45.426;9.206;2023-04-22T11:33:46;12.02;;;9.10;;
32393;SDS011;18853;45.426;9.206;2023-04-22T11:36:12;13.85;;;10.45;;
32393;SDS011;18853;45.426;9.206;2023-04-22T11:38:39;13.32;;;9.23;;
32393;SDS011;18853;45.426;9.206;2023-04-22T11:41:05;15.73;;;11.60;;
32393;SDS011;18853;45.426;9.206;2023-04-22T11:43:31;11.90;;;8.55;;
32393;SDS011;18853;45.426;9.206;2023-04-22T11:45:56;11.75;;;9.20;;
32393;SDS011;18853;45.426;9.206;2023-04-22T11:48:22;10.73;;;8.88;;
32393;SDS011;18853;45.426;9.206;2023-04-22T11:50:48;10.07;;;8.38;;
32393;SDS011;18853;45.426;9.206;2023-04-22T11:53:21;10.35;;;8.13;;
32393;SDS011;18853;45.426;9.206;2023-04-22T11:55:48;13.35;;;8.57;;
32393;SDS011;18853;45.426;9.206;2023-04-22T12:00:44;9.85;;;7.30;;
32393;SDS011;18853;45.426;9.206;2023-04-22T12:03:12;12.40;;;10.02;;
32393;SDS011;18853;45.426;9.206;2023-04-22T12:05:56;8.98;;;7.57;;
32393;SDS011;18853;45.426;9.206;2023-04-22T12:11:01;11.77;;;7.40;;
32393;SDS011;18853;45.426;9.206;2023-04-22T12:16:09;10.45;;;8.40;;
32393;SDS011;18853;45.426;9.206;2023-04-22T12:19:02;11.05;;;8.88;;
32393;SDS011;18853;45.426;9.206;2023-04-22T12:21:27;11.30;;;8.13;;
32393;SDS011;18853;45.426;9.206;2023-04-22T12:24:00;10.50;;;7.53;;
32393;SDS011;18853;45.426;9.206;2023-04-22T12:26:30;9.20;;;6.63;;
32393;SDS011;18853;45.426;9.206;2023-04-22T12:28:56;7.47;;;6.13;;
32393;SDS011;18853;45.426;9.206;2023-04-22T12:31:23;8.68;;;6.38;;
32393;SDS011;18853;45.426;9.206;2023-04-22T12:33:49;8.38;;;5.25;;
32393;SDS011;18853;45.426;9.206;2023-04-22T12:36:15;7.70;;;5.63;;
32393;SDS011;18853;45.426;9.206;2023-04-22T12:38:42;8.95;;;6.63;;
32393;SDS011;18853;45.426;9.206;2023-04-22T12:41:07;8.75;;;6.72;;
32393;SDS011;18853;45.426;9.206;2023-04-22T12:43:33;10.68;;;7.03;;
32393;SDS011;18853;45.426;9.206;2023-04-22T12:46:05;10.18;;;7.38;;
32393;SDS011;18853;45.426;9.206;2023-04-22T12:48:32;10.05;;;7.05;;
32393;SDS011;18853;45.426;9.206;2023-04-22T12:50:58;7.68;;;6.07;;
32393;SDS011;18853;45.426;9.206;2023-04-22T12:53:25;8.13;;;5.75;;
32393;SDS011;18853;45.426;9.206;2023-04-22T12:55:51;7.57;;;5.80;;
32393;SDS011;18853;45.426;9.206;2023-04-22T12:58:17;10.20;;;5.90;;
32393;SDS011;18853;45.426;9.206;2023-04-22T13:00:43;9.02;;;6.90;;
32393;SDS011;18853;45.426;9.206;2023-04-22T13:03:08;8.02;;;5.90;;
32393;SDS011;18853;45.426;9.206;2023-04-22T13:05:35;7.55;;;6.15;;
32393;SDS011;18853;45.426;9.206;2023-04-22T13:08:01;8.73;;;6.45;;
32393;SDS011;18853;45.426;9.206;2023-04-22T13:10:27;9.40;;;5.38;;
32393;SDS011;18853;45.426;9.206;2023-04-22T13:12:54;5.93;;;3.72;;
32393;SDS011;18853;45.426;9.206;2023-04-22T13:15:20;6.00;;;2.97;;
32393;SDS011;18853;45.426;9.206;2023-04-22T13:17:46;4.50;;;2.80;;
32393;SDS011;18853;45.426;9.206;2023-04-22T13:20:12;5.00;;;2.53;;
32393;SDS011;18853;45.426;9.206;2023-04-22T13:22:39;5.70;;;2.10;;
32393;SDS011;18853;45.426;9.206;2023-04-22T13:25:08;5.00;;;2.67;;
32393;SDS011;18853;45.426;9.206;2023-04-22T13:27:34;5.43;;;3.22;;
32393;SDS011;18853;45.426;9.206;2023-04-22T13:30:00;4.85;;;2.90;;
32393;SDS011;18853;45.426;9.206;2023-04-22T13:32:27;4.50;;;2.65;;
32393;SDS011;18853;45.426;9.206;2023-04-22T13:34:53;4.35;;;2.60;;
32393;SDS011;18853;45.426;9.206;2023-04-22T13:37:19;4.30;;;2.58;;
32393;SDS011;18853;45.426;9.206;2023-04-22T13:39:45;7.28;;;2.75;;
32393;SDS011;18853;45.426;9.206;2023-04-22T13:42:11;4.43;;;2.50;;
32393;SDS011;18853;45.426;9.206;2023-04-22T13:44:37;5.20;;;2.38;;
32393;SDS011;18853;45.426;9.206;2023-04-22T13:47:03;3.80;;;2.20;;
32393;SDS011;18853;45.426;9.206;2023-04-22T13:49:29;4.72;;;1.90;;
32393;SDS011;18853;45.426;9.206;2023-04-22T13:51:55;4.88;;;2.10;;
32393;SDS011;18853;45.426;9.206;2023-04-22T13:54:21;4.93;;;2.55;;
32393;SDS011;18853;45.426;9.206;2023-04-22T13:56:47;5.72;;;2.67;;
32393;SDS011;18853;45.426;9.206;2023-04-22T13:59:13;4.38;;;1.85;;
32393;SDS011;18853;45.426;9.206;2023-04-22T14:01:39;4.00;;;1.80;;
32393;SDS011;18853;45.426;9.206;2023-04-22T14:04:04;2.85;;;1.70;;
32393;SDS011;18853;45.426;9.206;2023-04-22T14:06:31;3.22;;;2.20;;
32393;SDS011;18853;45.426;9.206;2023-04-22T14:08:56;4.57;;;2.00;;
32393;SDS011;18853;45.426;9.206;2023-04-22T14:11:22;6.57;;;2.28;;
32393;SDS011;18853;45.426;9.206;2023-04-22T14:13:48;4.57;;;1.80;;
32393;SDS011;18853;45.426;9.206;2023-04-22T14:16:13;4.05;;;2.00;;
32393;SDS011;18853;45.426;9.206;2023-04-22T14:18:40;2.65;;;1.77;;
32393;SDS011;18853;45.426;9.206;2023-04-22T14:21:06;3.95;;;1.90;;
32393;SDS011;18853;45.426;9.206;2023-04-22T14:23:42;3.90;;;2.08;;
32393;SDS011;18853;45.426;9.206;2023-04-22T14:26:09;3.85;;;2.08;;
32393;SDS011;18853;45.426;9.206;2023-04-22T14:28:36;3.33;;;1.60;;
32393;SDS011;18853;45.426;9.206;2023-04-22T14:31:03;4.00;;;2.22;;
32393;SDS011;18853;45.426;9.206;2023-04-22T14:33:29;4.85;;;2.90;;
32393;SDS011;18853;45.426;9.206;2023-04-22T14:35:55;4.20;;;2.83;;
32393;SDS011;18853;45.426;9.206;2023-04-22T14:38:21;5.35;;;2.80;;
32393;SDS011;18853;45.426;9.206;2023-04-22T14:40:47;6.60;;;3.38;;
32393;SDS011;18853;45.426;9.206;2023-04-22T14:43:13;5.38;;;2.90;;
32393;SDS011;18853;45.426;9.206;2023-04-22T14:45:40;5.75;;;2.97;;
32393;SDS011;18853;45.426;9.206;2023-04-22T14:48:05;4.40;;;3.20;;
32393;SDS011;18853;45.426;9.206;2023-04-22T14:50:31;5.20;;;3.40;;
32393;SDS011;18853;45.426;9.206;2023-04-22T14:52:58;4.80;;;3.15;;
32393;SDS011;18853;45.426;9.206;2023-04-22T14:55:24;5.20;;;3.90;;
32393;SDS011;18853;45.426;9.206;2023-04-22T14:57:50;5.05;;;3.85;;
32393;SDS011;18853;45.426;9.206;2023-04-22T15:00:17;4.60;;;3.72;;